createdAt,value
2023-05-14T00:00:27.093Z,57.16
2023-05-14T00:02:54.614Z,57.76
2023-05-14T00:05:21.605Z,58.57
2023-05-14T00:07:48.543Z,59.39
2023-05-14T00:10:15.374Z,60.10
2023-05-14T00:12:42.462Z,60.35
2023-05-14T00:15:09.981Z,60.45
2023-05-14T00:17:37.923Z,61.10
2023-05-14T00:20:07.465Z,61.63
2023-05-14T00:22:35.251Z,65.10
2023-05-14T00:25:02.790Z,69.15
2023-05-14T00:27:30.448Z,67.16
2023-05-14T00:29:57.716Z,66.75
2023-05-14T00:32:25.465Z,64.96
2023-05-14T00:34:52.397Z,64.24
2023-05-14T00:37:19.870Z,62.65
2023-05-14T00:39:47.089Z,58.91
2023-05-14T00:42:14.158Z,55.17
2023-05-14T00:44:41.194Z,54.39
2023-05-14T00:47:08.977Z,54.74
2023-05-14T00:49:36.638Z,55.56
2023-05-14T00:52:04.261Z,56.20
2023-05-14T00:54:31.516Z,57.14
2023-05-14T00:56:59.860Z,57.80
2023-05-14T00:59:26.836Z,58.73
2023-05-14T01:01:53.873Z,59.58
2023-05-14T01:04:21.225Z,60.07
2023-05-14T01:07:07.758Z,60.66
2023-05-14T01:09:44.807Z,60.40
2023-05-14T01:12:19.632Z,61.48
2023-05-14T01:14:57.261Z,64.03
2023-05-14T01:17:28.920Z,69.33
2023-05-14T01:19:57.093Z,69.37
2023-05-14T01:22:24.248Z,67.33
2023-05-14T01:24:51.248Z,65.24
2023-05-14T01:27:46.457Z,63.75
2023-05-14T01:30:19.728Z,61.92
2023-05-14T01:32:53.876Z,58.80
2023-05-14T01:35:25.694Z,56.26
2023-05-14T01:37:55.932Z,56.28
2023-05-14T01:40:24.408Z,56.93
2023-05-14T01:42:53.264Z,57.45
2023-05-14T01:45:24.729Z,58.78
2023-05-14T01:47:52.178Z,59.41
2023-05-14T01:50:19.346Z,59.93
2023-05-14T01:52:47.228Z,60.60
2023-05-14T01:55:14.689Z,61.18
2023-05-14T01:57:41.808Z,63.71
2023-05-14T02:00:09.673Z,67.59
2023-05-14T02:02:36.691Z,67.65
2023-05-14T02:05:05.560Z,68.77
2023-05-14T02:07:33.887Z,65.37
2023-05-14T02:10:00.972Z,63.09
2023-05-14T02:12:27.867Z,62.05
2023-05-14T02:14:54.849Z,61.19
2023-05-14T02:17:21.869Z,60.76
2023-05-14T02:19:48.802Z,60.25
2023-05-14T02:22:15.777Z,57.70
2023-05-14T02:24:43.334Z,55.42
2023-05-14T02:27:10.251Z,55.84
2023-05-14T02:29:37.090Z,56.44
2023-05-14T02:32:04.408Z,57.75
2023-05-14T02:34:31.390Z,59.06
2023-05-14T02:36:58.249Z,59.99
2023-05-14T02:39:25.254Z,60.96
2023-05-14T02:41:52.132Z,64.00
2023-05-14T02:44:19.064Z,67.10
2023-05-14T02:46:46.464Z,66.80
2023-05-14T02:49:13.707Z,66.10
2023-05-14T02:51:40.604Z,64.13
2023-05-14T02:54:07.682Z,62.78
2023-05-14T02:56:34.690Z,61.97
2023-05-14T02:59:01.529Z,61.53
2023-05-14T03:01:29.124Z,60.45
2023-05-14T03:03:56.591Z,58.28
2023-05-14T03:06:23.614Z,56.22
2023-05-14T03:08:50.852Z,56.46
2023-05-14T03:11:17.884Z,57.10
2023-05-14T03:13:44.733Z,58.22
2023-05-14T03:16:11.708Z,59.52
2023-05-14T03:18:38.569Z,63.92
2023-05-14T03:21:06.295Z,68.65
2023-05-14T03:23:35.381Z,66.72
2023-05-14T03:26:02.656Z,62.49
2023-05-14T03:28:29.576Z,61.04
2023-05-14T03:30:56.746Z,58.56
2023-05-14T03:33:24.170Z,57.27
2023-05-14T03:35:52.128Z,57.84
2023-05-14T03:38:18.981Z,58.68
2023-05-14T03:40:46.455Z,59.44
2023-05-14T03:43:13.384Z,60.60
2023-05-14T03:45:40.415Z,62.03
2023-05-14T03:48:07.694Z,64.75
2023-05-14T03:50:34.737Z,67.66
2023-05-14T03:53:01.748Z,68.10
2023-05-14T03:55:28.626Z,67.52
2023-05-14T03:57:55.558Z,64.57
2023-05-14T04:00:22.896Z,63.80
2023-05-14T04:02:50.112Z,62.52
2023-05-14T04:05:17.613Z,62.07
2023-05-14T04:07:46.182Z,58.03
2023-05-14T04:10:14.568Z,55.52
2023-05-14T04:12:41.392Z,56.23
2023-05-14T04:15:09.171Z,57.81
2023-05-14T04:17:36.143Z,59.28
2023-05-14T04:20:03.487Z,60.91
2023-05-14T04:22:30.400Z,63.97
2023-05-14T04:24:57.253Z,68.02
2023-05-14T04:27:24.177Z,64.63
2023-05-14T04:29:51.431Z,62.36
2023-05-14T04:32:18.671Z,61.85
2023-05-14T04:34:47.278Z,58.09
2023-05-14T04:37:14.267Z,54.98
2023-05-14T04:39:41.132Z,55.46
2023-05-14T04:42:08.585Z,56.28
2023-05-14T04:44:36.916Z,58.23
2023-05-14T04:47:04.846Z,60.55
2023-05-14T04:49:32.200Z,63.43
2023-05-14T04:51:59.558Z,65.38
2023-05-14T04:54:26.799Z,63.18
2023-05-14T04:56:55.464Z,61.25
2023-05-14T04:59:22.815Z,57.93
2023-05-14T05:01:49.675Z,55.98
2023-05-14T05:04:16.637Z,56.12
2023-05-14T05:06:43.765Z,57.34
2023-05-14T05:09:10.802Z,59.09
2023-05-14T05:11:39.291Z,59.65
2023-05-14T05:14:06.126Z,59.68
2023-05-14T05:16:33.321Z,60.89
2023-05-14T05:19:00.257Z,64.09
2023-05-14T05:21:27.261Z,66.10
2023-05-14T05:23:54.229Z,61.86
2023-05-14T05:26:22.585Z,59.87
2023-05-14T05:28:49.430Z,55.07
2023-05-14T05:31:19.056Z,54.81
2023-05-14T05:33:46.999Z,54.49
2023-05-14T05:36:13.864Z,54.96
2023-05-14T05:38:40.776Z,55.43
2023-05-14T05:41:08.254Z,55.91
2023-05-14T05:43:35.373Z,56.39
2023-05-14T05:46:02.503Z,58.02
2023-05-14T05:48:29.463Z,58.82
2023-05-14T05:50:56.300Z,59.88
2023-05-14T05:53:23.351Z,59.45
2023-05-14T05:55:51.849Z,59.11
2023-05-14T05:58:20.035Z,59.02
2023-05-14T06:00:47.691Z,59.69
2023-05-14T06:03:15.280Z,59.82
2023-05-14T06:05:42.225Z,59.85
2023-05-14T06:08:10.122Z,59.51
2023-05-14T06:10:37.895Z,59.38
2023-05-14T06:13:04.924Z,59.67
2023-05-14T06:15:31.875Z,59.68
2023-05-14T06:17:58.891Z,59.47
2023-05-14T06:20:26.143Z,59.80
2023-05-14T06:22:53.216Z,59.08
2023-05-14T06:25:20.073Z,59.08
2023-05-14T06:27:47.018Z,59.32
2023-05-14T06:30:14.579Z,58.85
2023-05-14T06:32:41.570Z,59.57
2023-05-14T06:35:09.178Z,59.44
2023-05-14T06:37:36.105Z,59.31
2023-05-14T06:40:03.970Z,59.12
2023-05-14T06:42:30.817Z,59.26
2023-05-14T06:44:57.654Z,58.86
2023-05-14T06:47:25.014Z,58.67
2023-05-14T06:49:51.969Z,58.74
2023-05-14T06:52:18.884Z,58.96
2023-05-14T06:55:00.436Z,59.05
2023-05-14T06:57:34.219Z,58.82
2023-05-14T07:00:03.299Z,58.40
2023-05-14T07:02:31.160Z,57.90
2023-05-14T07:04:58.096Z,57.47
2023-05-14T07:07:25.119Z,57.38
2023-05-14T07:09:52.070Z,56.66
2023-05-14T07:12:18.914Z,56.68
2023-05-14T07:14:46.051Z,56.81
2023-05-14T07:17:12.946Z,55.50
2023-05-14T07:19:40.049Z,55.64
2023-05-14T07:22:06.886Z,55.25
2023-05-14T07:24:33.862Z,55.18
2023-05-14T07:27:02.097Z,54.41
2023-05-14T07:29:30.696Z,54.42
2023-05-14T07:31:57.820Z,54.33
2023-05-14T07:34:24.691Z,53.54
2023-05-14T07:36:51.599Z,52.94
2023-05-14T07:39:18.441Z,53.13
2023-05-14T07:41:45.296Z,52.75
2023-05-14T07:44:12.329Z,51.72
2023-05-14T07:46:39.064Z,51.85
2023-05-14T07:49:05.903Z,52.36
2023-05-14T07:51:33.687Z,51.30
2023-05-14T07:54:01.294Z,49.97
2023-05-14T07:56:32.813Z,48.74
2023-05-14T07:59:00.108Z,49.89
2023-05-14T08:01:27.492Z,50.37
2023-05-14T08:03:54.666Z,49.81
2023-05-14T08:06:23.292Z,49.54
2023-05-14T08:08:50.166Z,47.71
2023-05-14T08:11:17.151Z,47.14
2023-05-14T08:13:44.138Z,48.12
2023-05-14T08:16:10.984Z,47.09
2023-05-14T08:18:38.272Z,47.05
2023-05-14T08:21:05.852Z,47.21
2023-05-14T08:23:32.838Z,46.25
2023-05-14T08:26:00.332Z,45.31
2023-05-14T08:28:27.373Z,44.85
2023-05-14T08:30:54.745Z,45.62
2023-05-14T08:33:22.110Z,44.55
2023-05-14T08:35:54.101Z,43.63
2023-05-14T08:38:21.295Z,42.98
2023-05-14T08:41:01.119Z,44.68
2023-05-14T08:43:36.095Z,44.29
2023-05-14T08:46:06.668Z,43.84
2023-05-14T08:48:34.850Z,43.96
2023-05-14T08:51:02.806Z,43.71
2023-05-14T08:53:31.769Z,42.97
2023-05-14T08:56:01.148Z,43.23
2023-05-14T08:58:29.100Z,42.08
2023-05-14T09:00:57.054Z,43.00
2023-05-14T09:03:24.686Z,42.34
2023-05-14T09:05:52.741Z,41.12
2023-05-14T09:08:20.202Z,41.23
2023-05-14T09:10:47.210Z,40.98
2023-05-14T09:13:14.969Z,40.97
2023-05-14T09:15:42.158Z,41.81
2023-05-14T09:18:10.439Z,41.73
2023-05-14T09:20:39.732Z,41.06
2023-05-14T09:23:06.569Z,41.05
2023-05-14T09:25:33.926Z,41.14
2023-05-14T09:28:07.457Z,40.94
2023-05-14T09:30:35.327Z,41.12
2023-05-14T09:33:04.457Z,41.75
2023-05-14T09:35:32.847Z,40.90
2023-05-14T09:37:59.939Z,40.45
2023-05-14T09:40:27.961Z,39.65
2023-05-14T09:42:55.781Z,39.47
2023-05-14T09:45:22.682Z,39.60
2023-05-14T09:47:50.185Z,40.16
2023-05-14T09:50:17.495Z,40.58
2023-05-14T09:52:44.490Z,40.12
2023-05-14T09:55:11.610Z,40.01
2023-05-14T09:57:38.719Z,40.10
2023-05-14T10:00:07.101Z,40.19
2023-05-14T10:02:38.685Z,39.92
2023-05-14T10:05:07.557Z,40.32
2023-05-14T10:07:41.953Z,40.22
2023-05-14T10:10:13.813Z,40.49
2023-05-14T10:12:41.539Z,40.49
2023-05-14T10:15:18.322Z,40.08
2023-05-14T10:17:50.566Z,40.16
2023-05-14T10:20:18.797Z,40.52
2023-05-14T10:22:46.491Z,40.63
2023-05-14T10:25:14.308Z,40.14
2023-05-14T10:27:42.656Z,40.28
2023-05-14T10:30:13.268Z,40.08
2023-05-14T10:32:42.193Z,39.68
2023-05-14T10:35:21.058Z,40.19
2023-05-14T10:37:51.560Z,40.35
2023-05-14T10:40:19.664Z,39.56
2023-05-14T10:42:47.179Z,39.75
2023-05-14T10:45:15.955Z,40.18
2023-05-14T10:47:46.157Z,40.55
2023-05-14T10:50:15.582Z,40.68
2023-05-14T10:52:46.524Z,40.76
2023-05-14T10:55:15.520Z,40.59
2023-05-14T10:57:44.488Z,40.00
2023-05-14T11:00:13.048Z,39.92
2023-05-14T11:02:42.236Z,40.18
2023-05-14T11:05:19.674Z,40.29
2023-05-14T11:07:49.024Z,40.50
2023-05-14T11:10:18.950Z,39.99
2023-05-14T11:12:51.239Z,40.07
2023-05-14T11:15:23.723Z,40.22
2023-05-14T11:17:51.994Z,39.87
2023-05-14T11:20:20.334Z,39.87
2023-05-14T11:22:48.921Z,39.83
2023-05-14T11:25:16.612Z,40.36
2023-05-14T11:27:45.615Z,39.68
2023-05-14T11:30:20.280Z,39.75
2023-05-14T11:32:49.692Z,39.55
2023-05-14T11:35:17.933Z,39.29
2023-05-14T11:37:52.565Z,38.97
2023-05-14T11:40:20.420Z,38.72
2023-05-14T11:42:47.644Z,38.79
2023-05-14T11:45:24.585Z,38.89
2023-05-14T11:47:54.130Z,39.12
2023-05-14T11:50:22.646Z,39.45
2023-05-14T11:52:51.193Z,39.61
2023-05-14T11:55:18.825Z,39.66
2023-05-14T11:57:46.257Z,39.50
2023-05-14T12:00:17.303Z,39.35
2023-05-14T12:02:44.424Z,39.73
2023-05-14T12:05:13.608Z,39.65
2023-05-14T12:07:42.108Z,39.90
2023-05-14T12:10:12.094Z,39.49
2023-05-14T12:12:39.137Z,39.40
2023-05-14T12:15:13.776Z,39.23
2023-05-14T12:17:41.587Z,38.74
2023-05-14T12:20:13.227Z,38.65
2023-05-14T12:22:42.808Z,38.76
2023-05-14T12:25:14.581Z,38.39
2023-05-14T12:27:44.985Z,38.84
2023-05-14T12:32:47.883Z,38.35
2023-05-14T12:35:14.877Z,38.28
2023-05-14T12:37:43.030Z,38.28
2023-05-14T12:40:10.429Z,38.18
2023-05-14T12:42:38.031Z,38.30
2023-05-14T12:45:08.215Z,38.27
2023-05-14T12:47:36.644Z,38.08
2023-05-14T12:50:04.340Z,37.98
2023-05-14T12:55:02.008Z,38.47
2023-05-14T12:57:30.441Z,38.25
2023-05-14T12:59:58.140Z,38.32
2023-05-14T13:02:25.071Z,38.07
2023-05-14T13:04:52.053Z,37.96
2023-05-14T13:07:18.953Z,38.05
2023-05-14T13:09:45.899Z,37.92
2023-05-14T13:12:13.075Z,37.98
2023-05-14T13:14:40.007Z,37.86
2023-05-14T13:17:08.387Z,38.15
2023-05-14T13:19:35.652Z,38.17
2023-05-14T13:22:02.613Z,38.31
2023-05-14T13:24:29.527Z,38.20
2023-05-14T13:26:56.805Z,38.38
2023-05-14T13:29:24.759Z,38.53
2023-05-14T13:31:52.066Z,38.39
2023-05-14T13:34:19.285Z,37.98
2023-05-14T13:36:47.594Z,38.08
2023-05-14T13:39:14.811Z,38.08
2023-05-14T13:41:42.295Z,38.13
2023-05-14T13:44:09.492Z,38.42
2023-05-14T13:46:36.471Z,38.44
2023-05-14T13:49:03.442Z,38.45
2023-05-14T13:51:31.607Z,38.45
2023-05-14T13:53:59.137Z,38.50
2023-05-14T13:56:26.519Z,38.33
2023-05-14T13:59:03.158Z,38.41
2023-05-14T14:01:36.695Z,38.60
2023-05-14T14:04:03.729Z,38.74
2023-05-14T14:06:34.878Z,38.99
2023-05-14T14:09:02.273Z,39.03
2023-05-14T14:11:29.273Z,38.84
2023-05-14T14:13:56.248Z,39.03
2023-05-14T14:16:23.257Z,38.51
2023-05-14T14:18:50.768Z,38.69
2023-05-14T14:21:24.916Z,38.69
2023-05-14T14:23:52.120Z,38.93
2023-05-14T14:26:19.257Z,39.21
2023-05-14T14:28:46.269Z,39.39
2023-05-14T14:31:13.529Z,39.45
2023-05-14T14:33:40.684Z,39.64
2023-05-14T14:36:08.190Z,39.75
2023-05-14T14:38:35.375Z,39.88
2023-05-14T14:41:03.474Z,40.14
2023-05-14T14:43:30.509Z,40.23
2023-05-14T14:45:58.394Z,40.32
2023-05-14T14:48:37.843Z,40.35
2023-05-14T14:51:06.794Z,40.22
2023-05-14T14:53:35.176Z,40.47
2023-05-14T14:56:03.357Z,40.94
2023-05-14T14:58:31.662Z,41.09
2023-05-14T15:00:59.331Z,41.25
2023-05-14T15:03:27.298Z,41.33
2023-05-14T15:05:54.589Z,41.60
2023-05-14T15:08:27.760Z,41.59
2023-05-14T15:10:56.338Z,41.80
2023-05-14T15:13:23.680Z,42.04
2023-05-14T15:15:52.939Z,42.12
2023-05-14T15:18:20.252Z,42.26
2023-05-14T15:20:47.722Z,42.53
2023-05-14T15:23:14.853Z,42.88
2023-05-14T15:25:41.926Z,43.03
2023-05-14T15:28:09.128Z,42.85
2023-05-14T15:30:36.237Z,43.16
2023-05-14T15:33:03.295Z,43.39
2023-05-14T15:35:30.626Z,43.42
2023-05-14T15:37:57.658Z,43.73
2023-05-14T15:40:25.106Z,43.78
2023-05-14T15:42:52.378Z,44.26
2023-05-14T15:45:19.424Z,44.11
2023-05-14T15:47:46.288Z,44.49
2023-05-14T15:50:13.661Z,44.73
2023-05-14T15:52:41.858Z,45.15
2023-05-14T15:55:09.549Z,45.69
2023-05-14T15:57:36.879Z,45.85
2023-05-14T16:00:11.419Z,46.03
2023-05-14T16:02:39.938Z,46.55
2023-05-14T16:05:08.723Z,46.97
2023-05-14T16:07:36.429Z,47.61
2023-05-14T16:10:04.065Z,47.47
2023-05-14T16:12:31.601Z,47.67
2023-05-14T16:14:59.343Z,48.24
2023-05-14T16:17:30.810Z,48.17
2023-05-14T16:19:57.891Z,48.86
2023-05-14T16:22:24.860Z,49.80
2023-05-14T16:24:51.819Z,50.00
2023-05-14T16:27:19.514Z,51.19
2023-05-14T16:29:46.577Z,52.25
2023-05-14T16:32:13.842Z,51.91
2023-05-14T16:34:41.490Z,51.60
2023-05-14T16:37:09.285Z,52.11
2023-05-14T16:39:37.945Z,52.20
2023-05-14T16:42:05.797Z,53.67
2023-05-14T16:44:32.898Z,55.85
2023-05-14T16:46:59.837Z,56.35
2023-05-14T16:49:26.692Z,57.32
2023-05-14T16:51:53.567Z,58.46
2023-05-14T16:54:20.511Z,59.61
2023-05-14T16:56:48.500Z,59.61
2023-05-14T16:59:16.327Z,64.44
2023-05-14T17:01:44.770Z,69.29
2023-05-14T17:04:11.827Z,68.24
2023-05-14T17:06:38.900Z,64.09
2023-05-14T17:09:07.195Z,57.38
2023-05-14T17:11:34.084Z,53.33
2023-05-14T17:14:00.957Z,54.51
2023-05-14T17:16:28.510Z,54.52
2023-05-14T17:18:55.807Z,55.87
2023-05-14T17:21:23.491Z,57.40
2023-05-14T17:23:50.873Z,58.35
2023-05-14T17:26:17.929Z,62.13
2023-05-14T17:28:45.016Z,61.97
2023-05-14T17:31:12.022Z,62.46
2023-05-14T17:33:39.452Z,60.36
2023-05-14T17:36:07.243Z,57.97
2023-05-14T17:38:35.242Z,58.93
2023-05-14T17:41:02.270Z,63.17
2023-05-14T17:43:29.405Z,66.12
2023-05-14T17:45:56.407Z,66.52
2023-05-14T17:48:24.414Z,63.58
2023-05-14T17:50:52.856Z,63.79
2023-05-14T17:53:19.747Z,63.28
2023-05-14T17:55:46.870Z,62.38
2023-05-14T17:58:16.364Z,60.91
2023-05-14T18:00:44.530Z,57.37
2023-05-14T18:03:11.962Z,56.55
2023-05-14T18:05:39.258Z,56.86
2023-05-14T18:08:06.485Z,57.67
2023-05-14T18:10:33.869Z,58.92
2023-05-14T18:13:01.739Z,60.62
2023-05-14T18:15:31.874Z,63.36
2023-05-14T18:17:58.958Z,69.16
2023-05-14T18:20:26.272Z,69.72
2023-05-14T18:22:53.268Z,67.77
2023-05-14T18:25:20.324Z,66.51
2023-05-14T18:27:47.506Z,65.47
2023-05-14T18:30:16.055Z,64.68
2023-05-14T18:32:45.169Z,63.80
2023-05-14T18:35:13.546Z,63.48
2023-05-14T18:37:41.310Z,62.21
2023-05-14T18:40:09.269Z,61.67
2023-05-14T18:42:36.780Z,61.00
2023-05-14T18:45:04.964Z,61.16
2023-05-14T18:47:33.596Z,60.61
2023-05-14T18:50:02.251Z,60.03
2023-05-14T18:52:29.982Z,58.00
2023-05-14T18:54:57.172Z,56.47
2023-05-14T18:57:24.430Z,57.31
2023-05-14T18:59:51.516Z,58.62
2023-05-14T19:02:19.075Z,60.46
2023-05-14T19:07:15.990Z,68.41
2023-05-14T19:09:43.126Z,67.94
2023-05-14T19:12:10.091Z,66.68
2023-05-14T19:14:37.261Z,64.64
2023-05-14T19:17:05.288Z,63.48
2023-05-14T19:19:32.302Z,62.82
2023-05-14T19:21:59.342Z,61.92
2023-05-14T19:24:26.431Z,60.72
2023-05-14T19:26:53.834Z,58.44
2023-05-14T19:29:20.789Z,57.54
2023-05-14T19:31:47.976Z,59.30
2023-05-14T19:34:15.436Z,61.23
2023-05-14T19:36:42.733Z,63.67
2023-05-14T19:39:10.382Z,65.54
2023-05-14T19:41:37.379Z,64.90
2023-05-14T19:44:04.545Z,64.03
2023-05-14T19:46:32.036Z,63.84
2023-05-14T19:48:59.440Z,63.57
2023-05-14T19:51:26.380Z,63.51
2023-05-14T19:53:53.577Z,62.97
2023-05-14T19:56:22.139Z,61.14
2023-05-14T19:58:49.148Z,61.42
2023-05-14T20:01:16.136Z,60.91
2023-05-14T20:03:43.798Z,61.34
2023-05-14T20:06:11.336Z,61.75
2023-05-14T20:08:38.723Z,62.48
2023-05-14T20:11:06.862Z,62.56
2023-05-14T20:13:36.274Z,61.63
2023-05-14T20:16:04.053Z,62.21
2023-05-14T20:18:32.029Z,62.41
2023-05-14T20:20:59.017Z,62.43
2023-05-14T20:23:26.214Z,60.59
2023-05-14T20:25:53.656Z,60.59
2023-05-14T20:28:21.281Z,60.56
2023-05-14T20:30:48.178Z,60.26
2023-05-14T20:33:15.375Z,60.74
2023-05-14T20:35:44.188Z,60.89
2023-05-14T20:38:13.046Z,60.94
2023-05-14T20:40:41.338Z,61.42
2023-05-14T20:43:08.268Z,60.70
2023-05-14T20:45:36.201Z,60.54
2023-05-14T20:48:06.483Z,60.88
2023-05-14T20:50:33.802Z,61.22
2023-05-14T20:53:01.451Z,61.96
2023-05-14T20:55:28.407Z,61.59
2023-05-14T20:57:55.344Z,62.12
2023-05-14T21:00:22.291Z,61.74
2023-05-14T21:02:49.941Z,61.95
2023-05-14T21:05:17.702Z,62.32
2023-05-14T21:07:44.642Z,61.72
2023-05-14T21:10:11.809Z,61.42
2023-05-14T21:12:38.837Z,61.18
2023-05-14T21:15:06.288Z,61.46
2023-05-14T21:17:33.540Z,62.40
2023-05-14T21:20:01.223Z,62.70
2023-05-14T21:22:28.251Z,62.70
2023-05-14T21:24:55.915Z,62.31
2023-05-14T21:27:22.866Z,61.98
2023-05-14T21:29:50.456Z,62.31
2023-05-14T21:32:17.509Z,62.25
2023-05-14T21:34:44.914Z,62.09
2023-05-14T21:37:11.978Z,62.26
2023-05-14T21:39:38.942Z,61.59
2023-05-14T21:42:06.662Z,60.56
2023-05-14T21:44:33.662Z,60.09
2023-05-14T21:47:01.104Z,60.57
2023-05-14T21:49:28.375Z,61.43
2023-05-14T21:51:55.495Z,61.32
2023-05-14T21:54:22.638Z,61.46
2023-05-14T21:56:49.983Z,61.93
2023-05-14T21:59:16.796Z,62.13
2023-05-14T22:04:14.151Z,60.78
2023-05-14T22:06:41.978Z,61.87
2023-05-14T22:09:11.575Z,62.09
2023-05-14T22:11:38.634Z,62.59
2023-05-14T22:14:05.653Z,63.04
2023-05-14T22:16:33.772Z,62.24
2023-05-14T22:19:00.815Z,61.51
2023-05-14T22:21:28.081Z,61.60
2023-05-14T22:23:55.004Z,61.75
2023-05-14T22:26:22.154Z,61.09
2023-05-14T22:28:49.911Z,60.57
2023-05-14T22:31:17.289Z,60.59
2023-05-14T22:33:44.302Z,59.84
2023-05-14T22:36:11.742Z,58.17
2023-05-14T22:38:41.486Z,57.70
2023-05-14T22:41:08.453Z,58.72
2023-05-14T22:43:35.394Z,60.91
2023-05-14T22:46:02.478Z,65.26
2023-05-14T22:48:29.678Z,66.90
2023-05-14T22:50:56.702Z,65.55
2023-05-14T22:53:25.082Z,64.87
2023-05-14T22:55:52.398Z,64.04
2023-05-14T22:58:19.276Z,62.77
2023-05-14T23:00:46.243Z,61.56
2023-05-14T23:03:13.022Z,60.45
2023-05-14T23:05:39.834Z,58.37
2023-05-14T23:08:07.116Z,57.42
2023-05-14T23:10:35.807Z,58.77
2023-05-14T23:13:02.744Z,60.51
2023-05-14T23:15:29.948Z,64.80
2023-05-14T23:17:56.938Z,68.15
2023-05-14T23:20:23.854Z,67.23
2023-05-14T23:22:50.891Z,65.55
2023-05-14T23:25:17.687Z,64.00
2023-05-14T23:27:44.511Z,63.01
2023-05-14T23:30:12.361Z,62.62
2023-05-14T23:32:39.203Z,62.11
2023-05-14T23:35:11.261Z,61.45
2023-05-14T23:37:50.861Z,60.45
2023-05-14T23:40:25.121Z,57.97
2023-05-14T23:42:59.358Z,57.32
2023-05-14T23:45:31.958Z,58.97
2023-05-14T23:48:03.517Z,61.29
2023-05-14T23:50:41.886Z,66.45
2023-05-14T23:55:51.778Z,66.29
2023-05-14T23:58:18.620Z,65.45
